Time;durP1;ratioP1;P1;durP2;ratioP2;P2;SDS_P1;SDS_P2;PMS_P1;PMS_P2;Temp;Humidity;BMP_temperature;BMP_pressure;BME280_temperature;BME280_humidity;BME280_pressure;Samples;Min_cycle;Max_cycle;Signal;HPM_P1;HPM_P2
2024/04/25 00:01:00;;;;;;;16.70;14.38;;;;;;;;;;5349092;26;19993;-64
2024/04/25 00:03:26;;;;;;;18.45;14.50;;;;;;;;;;5349109;26;19993;-64
2024/04/25 00:05:52;;;;;;;16.35;13.93;;;;;;;;;;5318546;26;20001;-64
2024/04/25 00:08:18;;;;;;;16.77;13.57;;;;;;;;;;5318526;26;19993;-64
2024/04/25 00:10:43;;;;;;;18.10;14.70;;;;;;;;;;5349011;26;20326;-64
2024/04/25 00:13:09;;;;;;;15.90;13.57;;;;;;;;;;5349048;26;20008;-64
2024/04/25 00:15:34;;;;;;;17.02;14.07;;;;;;;;;;5348900;26;19993;-64
2024/04/25 00:18:00;;;;;;;16.60;14.02;;;;;;;;;;5348889;26;20450;-64
2024/04/25 00:20:25;;;;;;;17.45;14.43;;;;;;;;;;5348851;26;20001;-64
2024/04/25 00:22:50;;;;;;;17.10;14.45;;;;;;;;;;5289776;26;20001;-64
2024/04/25 00:25:16;;;;;;;16.80;14.27;;;;;;;;;;5348787;26;20004;-64
2024/04/25 00:27:41;;;;;;;16.88;14.18;;;;;;;;;;5348744;26;20374;-64
2024/04/25 00:30:07;;;;;;;18.45;14.65;;;;;;;;;;5348719;26;20023;-64
2024/04/25 00:32:33;;;;;;;18.02;14.75;;;;;;;;;;5348786;26;19997;-64
2024/04/25 00:35:01;;;;;;;16.52;14.18;;;;;;;;;;5348651;26;20004;-64
2024/04/25 00:37:27;;;;;;;19.60;14.63;;;;;;;;;;5348511;26;20011;-64
2024/04/25 00:39:54;;;;;;;17.73;14.95;;;;;;;;;;5348590;26;20017;-64
2024/04/25 00:42:22;;;;;;;18.23;15.13;;;;;;;;;;5348622;26;20008;-64
2024/04/25 00:44:48;;;;;;;17.75;15.10;;;;;;;;;;5348496;26;19997;-64
2024/04/25 00:47:15;;;;;;;18.50;15.45;;;;;;;;;;5348431;26;20074;-64
2024/04/25 00:49:41;;;;;;;20.25;15.95;;;;;;;;;;5349855;26;19997;-63
2024/04/25 00:52:08;;;;;;;19.35;15.57;;;;;;;;;;5381402;26;20000;-63
2024/04/25 00:54:33;;;;;;;18.08;14.68;;;;;;;;;;5383149;26;20443;-63
2024/04/25 00:57:03;;;;;;;17.85;14.68;;;;;;;;;;5382977;26;20010;-63
2024/04/25 00:59:30;;;;;;;18.83;15.55;;;;;;;;;;5382950;26;20000;-64
2024/04/25 01:01:58;;;;;;;19.05;14.38;;;;;;;;;;5382874;26;20069;-64
2024/04/25 01:04:26;;;;;;;18.75;15.00;;;;;;;;;;5383123;26;20007;-64
2024/04/25 01:06:52;;;;;;;16.88;14.18;;;;;;;;;;5382790;26;20414;-64
2024/04/25 01:09:17;;;;;;;18.63;14.20;;;;;;;;;;5382731;26;19996;-65
2024/04/25 01:11:42;;;;;;;19.38;14.20;;;;;;;;;;5382683;26;19992;-64
2024/04/25 01:14:08;;;;;;;16.50;13.32;;;;;;;;;;5382590;26;19996;-64
2024/04/25 01:16:33;;;;;;;17.38;13.95;;;;;;;;;;5382618;26;20039;-64
2024/04/25 01:18:59;;;;;;;16.88;13.68;;;;;;;;;;5382583;26;20379;-64
2024/04/25 01:21:24;;;;;;;16.45;13.15;;;;;;;;;;5382623;26;19992;-64
2024/04/25 01:23:51;;;;;;;15.88;13.35;;;;;;;;;;5351838;26;19996;-64
2024/04/25 01:26:17;;;;;;;17.50;14.30;;;;;;;;;;5382254;26;20008;-64
2024/04/25 01:28:43;;;;;;;17.60;14.52;;;;;;;;;;5382430;26;20320;-64
2024/04/25 01:31:09;;;;;;;18.85;13.95;;;;;;;;;;5382348;26;20000;-64
2024/04/25 01:33:35;;;;;;;15.68;13.98;;;;;;;;;;5382102;26;20073;-64
2024/04/25 01:36:00;;;;;;;17.60;15.70;;;;;;;;;;5322368;26;20004;-64
2024/04/25 01:38:26;;;;;;;18.60;14.77;;;;;;;;;;5382232;26;20004;-64
2024/04/25 01:40:51;;;;;;;16.70;14.00;;;;;;;;;;5382232;26;20019;-64
2024/04/25 01:43:17;;;;;;;17.92;14.85;;;;;;;;;;5382181;26;20003;-64
2024/04/25 01:45:42;;;;;;;15.77;14.07;;;;;;;;;;5382120;26;20318;-64
2024/04/25 01:48:08;;;;;;;17.08;14.45;;;;;;;;;;5382337;26;20435;-64
2024/04/25 01:50:33;;;;;;;18.45;15.48;;;;;;;;;;5381566;26;20021;-64
2024/04/25 01:52:59;;;;;;;17.58;14.15;;;;;;;;;;5381630;26;19993;-64
2024/04/25 01:55:25;;;;;;;17.25;15.10;;;;;;;;;;5381855;26;20066;-64
2024/04/25 01:57:51;;;;;;;18.15;15.00;;;;;;;;;;5381894;26;20093;-64
2024/04/25 02:00:16;;;;;;;18.40;15.82;;;;;;;;;;5381817;26;20393;-64
2024/04/25 02:02:41;;;;;;;18.23;15.63;;;;;;;;;;5381854;26;20064;-64
2024/04/25 02:05:07;;;;;;;17.20;15.07;;;;;;;;;;5385304;26;19995;-65
2024/04/25 02:07:33;;;;;;;17.70;14.57;;;;;;;;;;5385334;26;20042;-64
2024/04/25 02:09:59;;;;;;;17.20;14.48;;;;;;;;;;5385035;26;20000;-64
2024/04/25 02:12:24;;;;;;;17.83;14.82;;;;;;;;;;5385123;26;19996;-64
2024/04/25 02:14:50;;;;;;;20.88;14.95;;;;;;;;;;5354384;26;20368;-64
2024/04/25 02:17:15;;;;;;;19.38;15.82;;;;;;;;;;5385192;26;20004;-64
2024/04/25 02:19:41;;;;;;;19.02;15.55;;;;;;;;;;5385267;26;19996;-63
2024/04/25 02:27:34;;;;;;;19.10;15.75;;;;;;;;;;5358977;26;19999;-64
2024/04/25 02:30:00;;;;;;;19.05;14.95;;;;;;;;;;5385000;26;20007;-65
2024/04/25 02:32:26;;;;;;;17.48;14.70;;;;;;;;;;5385069;26;20004;-65
2024/04/25 02:34:51;;;;;;;19.65;15.80;;;;;;;;;;5384786;26;20000;-64
2024/04/25 02:37:16;;;;;;;19.23;15.70;;;;;;;;;;5384974;26;20402;-64
2024/04/25 02:39:42;;;;;;;20.45;15.60;;;;;;;;;;5384905;26;20008;-64
2024/04/25 02:42:07;;;;;;;20.50;15.25;;;;;;;;;;5384874;26;20434;-64
2024/04/25 02:44:32;;;;;;;18.02;14.90;;;;;;;;;;5384517;26;19997;-64
2024/04/25 02:46:58;;;;;;;20.25;15.68;;;;;;;;;;5384767;26;20007;-63
2024/04/25 02:49:23;;;;;;;18.25;14.98;;;;;;;;;;5384779;26;20000;-64
2024/04/25 02:51:49;;;;;;;18.63;15.70;;;;;;;;;;5384575;26;20007;-64
2024/04/25 02:54:14;;;;;;;18.73;15.90;;;;;;;;;;5353593;26;20094;-63
2024/04/25 02:56:39;;;;;;;20.70;16.23;;;;;;;;;;5384473;26;20390;-64
2024/04/25 02:59:05;;;;;;;20.33;16.15;;;;;;;;;;5384610;26;19992;-64
2024/04/25 03:01:31;;;;;;;19.60;15.77;;;;;;;;;;5384549;26;20000;-64
2024/04/25 03:03:56;;;;;;;19.42;15.70;;;;;;;;;;5384503;26;19992;-64
2024/04/25 03:06:21;;;;;;;18.73;14.73;;;;;;;;;;5383907;26;20018;-64
2024/04/25 03:08:47;;;;;;;19.00;14.88;;;;;;;;;;5384467;26;20001;-64
2024/04/25 03:11:18;;;;;;;19.73;14.68;;;;;;;;;;5384502;26;20004;-64
2024/04/25 03:13:44;;;;;;;16.38;14.00;;;;;;;;;;5384459;26;20011;-64
2024/04/25 03:16:09;;;;;;;15.48;12.18;;;;;;;;;;5383232;26;19996;-64
2024/04/25 03:18:35;;;;;;;16.70;12.15;;;;;;;;;;5384388;26;20012;-64
2024/04/25 03:21:07;;;;;;;17.38;12.68;;;;;;;;;;5324668;26;20449;-64
2024/04/25 03:23:34;;;;;;;16.63;13.43;;;;;;;;;;5384380;26;20438;-64
2024/04/25 03:26:00;;;;;;;16.98;14.18;;;;;;;;;;5384357;26;20006;-64
2024/04/25 03:28:26;;;;;;;16.33;11.48;;;;;;;;;;5384106;26;19996;-64
2024/04/25 03:30:51;;;;;;;19.17;14.73;;;;;;;;;;5384041;26;20038;-64
2024/04/25 03:33:17;;;;;;;19.17;14.85;;;;;;;;;;5384176;26;20008;-64
2024/04/25 03:35:42;;;;;;;16.13;13.43;;;;;;;;;;5383860;26;20326;-66
2024/04/25 03:38:07;;;;;;;16.55;13.63;;;;;;;;;;5383880;26;20447;-65
2024/04/25 03:40:39;;;;;;;18.50;15.05;;;;;;;;;;5384142;26;20441;-65
2024/04/25 03:43:05;;;;;;;19.13;14.20;;;;;;;;;;5384013;26;20000;-64
2024/04/25 03:45:31;;;;;;;18.83;14.27;;;;;;;;;;5353237;26;20046;-64
2024/04/25 03:47:58;;;;;;;18.80;15.60;;;;;;;;;;5383890;26;20024;-64
2024/04/25 03:50:23;;;;;;;19.77;15.63;;;;;;;;;;5383123;26;20001;-64
2024/04/25 03:52:49;;;;;;;18.25;15.15;;;;;;;;;;5379893;26;20426;-64
2024/04/25 03:55:14;;;;;;;17.70;14.60;;;;;;;;;;5381991;26;20010;-59
2024/04/25 03:57:40;;;;;;;18.42;15.25;;;;;;;;;;5352784;26;20450;-58
2024/04/25 04:00:06;;;;;;;19.95;15.23;;;;;;;;;;5383707;26;20000;-58
2024/04/25 04:02:32;;;;;;;20.13;15.50;;;;;;;;;;5383813;26;20008;-59
2024/04/25 04:04:57;;;;;;;16.98;14.18;;;;;;;;;;5383656;26;20065;-59
2024/04/25 04:07:23;;;;;;;18.35;14.15;;;;;;;;;;5383407;26;20411;-59
2024/04/25 04:10:01;;;;;;;19.15;15.23;;;;;;;;;;5383638;26;20057;-59
2024/04/25 04:12:26;;;;;;;18.23;14.15;;;;;;;;;;5384022;26;20434;-59
2024/04/25 04:14:53;;;;;;;18.80;14.57;;;;;;;;;;5353448;26;20000;-59
2024/04/25 04:17:18;;;;;;;17.50;13.30;;;;;;;;;;5383880;26;20046;-59
2024/04/25 04:19:44;;;;;;;13.52;10.30;;;;;;;;;;5384061;26;20053;-59
2024/04/25 04:22:09;;;;;;;14.93;11.05;;;;;;;;;;5383794;26;19998;-60
2024/04/25 04:24:35;;;;;;;15.60;12.23;;;;;;;;;;5383738;26;20061;-58
2024/04/25 04:27:08;;;;;;;15.55;12.95;;;;;;;;;;5403735;21;20015;-64
2024/04/25 04:29:34;;;;;;;17.98;13.40;;;;;;;;;;5418595;21;20000;-64
2024/04/25 04:32:00;;;;;;;17.90;14.48;;;;;;;;;;5417830;21;20017;-58
2024/04/25 04:34:27;;;;;;;15.15;12.93;;;;;;;;;;5400819;21;20334;-59
2024/04/25 04:37:08;;;;;;;15.65;13.50;;;;;;;;;;5408316;21;20023;-63
2024/04/25 04:39:33;;;;;;;17.77;13.80;;;;;;;;;;5346000;26;20078;-58
2024/04/25 04:41:59;;;;;;;18.83;14.82;;;;;;;;;;5317650;26;20363;-58
2024/04/25 04:44:24;;;;;;;18.13;14.68;;;;;;;;;;5348233;26;19993;-59
2024/04/25 04:46:50;;;;;;;21.27;15.85;;;;;;;;;;5348088;26;20001;-59
2024/04/25 04:49:15;;;;;;;21.73;16.90;;;;;;;;;;5348358;26;20043;-58
2024/04/25 04:51:40;;;;;;;25.42;19.73;;;;;;;;;;5348090;26;20071;-59
2024/04/25 04:54:06;;;;;;;29.48;21.90;;;;;;;;;;5347968;26;20424;-59
2024/04/25 04:56:31;;;;;;;24.63;18.85;;;;;;;;;;5348066;26;20007;-59
2024/04/25 04:58:56;;;;;;;26.05;19.50;;;;;;;;;;5317395;26;19997;-59
2024/04/25 05:01:22;;;;;;;24.73;18.65;;;;;;;;;;5347645;26;20000;-58
2024/04/25 05:03:47;;;;;;;20.92;15.90;;;;;;;;;;5347963;26;20441;-59
2024/04/25 05:06:13;;;;;;;21.58;14.90;;;;;;;;;;5347892;26;20071;-59
2024/04/25 05:08:38;;;;;;;18.45;13.75;;;;;;;;;;5347829;26;20004;-59
2024/04/25 05:11:03;;;;;;;22.65;16.45;;;;;;;;;;5347852;26;19993;-59
2024/04/25 05:13:29;;;;;;;20.80;14.90;;;;;;;;;;5348035;26;20001;-59
2024/04/25 05:15:54;;;;;;;15.48;13.05;;;;;;;;;;5347975;26;20066;-59
2024/04/25 05:18:19;;;;;;;19.27;14.38;;;;;;;;;;5317258;26;20001;-59
2024/04/25 05:20:45;;;;;;;17.25;13.95;;;;;;;;;;5346727;26;19993;-59
2024/04/25 05:23:10;;;;;;;16.17;13.05;;;;;;;;;;5314281;26;20004;-59
2024/04/25 05:25:36;;;;;;;17.67;14.73;;;;;;;;;;5343043;26;20015;-59
2024/04/25 05:28:01;;;;;;;16.52;13.18;;;;;;;;;;5345474;26;20442;-59
2024/04/25 05:30:27;;;;;;;17.17;14.30;;;;;;;;;;5313829;26;20066;-59
2024/04/25 05:32:53;;;;;;;14.48;12.05;;;;;;;;;;5343475;26;19997;-59
2024/04/25 05:35:18;;;;;;;12.50;10.20;;;;;;;;;;5343408;26;19993;-59
2024/04/25 05:37:43;;;;;;;13.10;10.20;;;;;;;;;;5343631;26;19993;-59
2024/04/25 05:40:09;;;;;;;14.43;11.13;;;;;;;;;;5346814;26;20071;-59
2024/04/25 05:42:34;;;;;;;13.13;10.90;;;;;;;;;;5346878;26;19999;-59
2024/04/25 05:45:00;;;;;;;10.82;8.50;;;;;;;;;;5347169;26;20040;-59
2024/04/25 05:47:25;;;;;;;11.77;9.50;;;;;;;;;;5350610;26;19993;-59
2024/04/25 05:49:50;;;;;;;11.38;9.90;;;;;;;;;;5350554;26;20008;-59
2024/04/25 05:52:16;;;;;;;11.82;9.77;;;;;;;;;;5350534;26;19997;-59
2024/04/25 05:54:41;;;;;;;11.38;7.88;;;;;;;;;;5350479;26;20328;-59
2024/04/25 05:57:07;;;;;;;13.85;10.00;;;;;;;;;;5350492;26;20436;-59
2024/04/25 05:59:33;;;;;;;10.18;8.77;;;;;;;;;;5350449;26;20009;-59
2024/04/25 06:01:59;;;;;;;10.05;8.55;;;;;;;;;;5350411;26;19996;-59
2024/04/25 06:04:26;;;;;;;8.88;7.95;;;;;;;;;;5350408;26;19997;-59
2024/04/25 06:06:51;;;;;;;11.85;9.73;;;;;;;;;;5350379;26;20011;-59
2024/04/25 06:09:16;;;;;;;9.73;8.45;;;;;;;;;;5350407;26;20005;-59
2024/04/25 06:11:42;;;;;;;11.05;9.32;;;;;;;;;;5350293;26;20001;-59
2024/04/25 06:14:07;;;;;;;10.80;8.20;;;;;;;;;;5350288;26;20420;-59
2024/04/25 06:16:32;;;;;;;10.27;8.27;;;;;;;;;;5350233;26;20424;-59
2024/04/25 06:18:58;;;;;;;12.10;9.25;;;;;;;;;;5350223;26;19993;-59
2024/04/25 06:21:23;;;;;;;9.27;7.57;;;;;;;;;;5350245;26;20001;-59
2024/04/25 06:23:48;;;;;;;10.93;8.57;;;;;;;;;;5350165;26;19993;-59
2024/04/25 06:26:14;;;;;;;10.82;9.32;;;;;;;;;;5350030;26;19993;-59
2024/04/25 06:28:39;;;;;;;7.75;6.85;;;;;;;;;;5350152;26;20001;-59
2024/04/25 06:31:05;;;;;;;8.07;7.28;;;;;;;;;;5350077;26;20067;-59
2024/04/25 06:33:30;;;;;;;7.03;6.28;;;;;;;;;;5350069;26;19996;-59
2024/04/25 06:35:56;;;;;;;8.57;7.68;;;;;;;;;;5349949;26;20319;-59
2024/04/25 06:38:21;;;;;;;8.02;7.22;;;;;;;;;;5367276;26;20003;-59
2024/04/25 06:40:49;;;;;;;9.93;8.63;;;;;;;;;;5384969;26;20022;-59
2024/04/25 06:43:15;;;;;;;9.20;8.05;;;;;;;;;;5385139;26;19996;-59
2024/04/25 06:45:41;;;;;;;8.98;7.55;;;;;;;;;;5325394;26;20000;-59
2024/04/25 06:48:09;;;;;;;9.45;7.88;;;;;;;;;;5354170;26;20004;-59
2024/04/25 06:50:35;;;;;;;8.38;7.55;;;;;;;;;;5383525;26;19996;-59
2024/04/25 06:53:01;;;;;;;10.65;8.25;;;;;;;;;;5353914;26;19996;-59
2024/04/25 06:55:27;;;;;;;8.48;7.63;;;;;;;;;;5353586;26;20413;-59
2024/04/25 06:57:53;;;;;;;6.78;6.10;;;;;;;;;;5384730;26;20445;-59
2024/04/25 07:00:20;;;;;;;6.85;6.22;;;;;;;;;;5384727;26;19996;-59
2024/04/25 07:02:45;;;;;;;7.68;6.90;;;;;;;;;;5384629;26;20007;-59
2024/04/25 07:05:11;;;;;;;8.88;7.53;;;;;;;;;;5384547;26;19996;-59
2024/04/25 07:07:36;;;;;;;7.10;6.38;;;;;;;;;;5384631;26;20393;-59
2024/04/25 07:10:02;;;;;;;6.78;6.18;;;;;;;;;;5384370;26;20007;-59
2024/04/25 07:12:30;;;;;;;5.95;5.43;;;;;;;;;;5384433;26;20012;-59
2024/04/25 07:14:56;;;;;;;6.82;5.72;;;;;;;;;;5384396;26;20000;-59
2024/04/25 07:17:21;;;;;;;6.35;5.75;;;;;;;;;;5384454;26;20007;-59
2024/04/25 07:19:46;;;;;;;6.38;5.78;;;;;;;;;;5384421;26;19996;-59
2024/04/25 07:22:12;;;;;;;6.07;5.53;;;;;;;;;;5384346;26;20000;-59
2024/04/25 07:24:37;;;;;;;9.15;6.18;;;;;;;;;;5384359;26;20139;-59
2024/04/25 07:27:03;;;;;;;7.00;6.20;;;;;;;;;;5384320;26;20000;-59
2024/04/25 07:29:28;;;;;;;6.63;5.60;;;;;;;;;;5353324;26;19996;-59
2024/04/25 07:31:54;;;;;;;5.38;4.90;;;;;;;;;;5353424;26;20000;-58
2024/04/25 07:34:19;;;;;;;5.53;5.00;;;;;;;;;;5384153;26;19992;-59
2024/04/25 07:36:45;;;;;;;5.90;5.32;;;;;;;;;;5384279;26;20011;-59
2024/04/25 07:39:10;;;;;;;6.90;5.53;;;;;;;;;;5353261;26;20000;-59
2024/04/25 07:41:35;;;;;;;5.10;4.57;;;;;;;;;;5384472;26;20000;-59
2024/04/25 07:44:01;;;;;;;4.70;4.35;;;;;;;;;;5384032;26;19992;-59
2024/04/25 07:46:26;;;;;;;6.18;5.70;;;;;;;;;;5384108;26;20004;-59
2024/04/25 07:48:52;;;;;;;5.57;5.00;;;;;;;;;;5383547;26;20074;-59
2024/04/25 07:51:17;;;;;;;5.47;5.00;;;;;;;;;;5383987;26;19992;-59
2024/04/25 07:53:42;;;;;;;5.57;5.10;;;;;;;;;;5383932;26;20005;-59
2024/04/25 07:56:08;;;;;;;6.10;4.95;;;;;;;;;;5383887;26;19992;-59
2024/04/25 07:58:33;;;;;;;5.25;4.75;;;;;;;;;;5383938;26;20318;-59
2024/04/25 08:00:58;;;;;;;6.65;5.43;;;;;;;;;;5352191;26;19996;-59
2024/04/25 08:03:24;;;;;;;5.43;4.93;;;;;;;;;;5383821;26;20000;-59
2024/04/25 08:05:50;;;;;;;6.20;5.60;;;;;;;;;;5383768;26;20000;-59
2024/04/25 08:08:18;;;;;;;6.20;5.65;;;;;;;;;;5383610;26;20000;-59
2024/04/25 08:10:44;;;;;;;5.10;4.63;;;;;;;;;;5352949;26;20011;-59
2024/04/25 08:13:09;;;;;;;7.95;5.80;;;;;;;;;;5383492;26;20107;-59
2024/04/25 08:15:36;;;;;;;7.93;5.60;;;;;;;;;;5383297;26;20004;-59
2024/04/25 08:18:02;;;;;;;5.95;5.45;;;;;;;;;;5383591;26;19996;-59
2024/04/25 08:20:27;;;;;;;6.18;5.68;;;;;;;;;;5383448;26;20003;-59
2024/04/25 08:22:53;;;;;;;6.45;5.55;;;;;;;;;;5383166;26;20000;-59
2024/04/25 08:25:18;;;;;;;5.60;5.05;;;;;;;;;;5383815;26;20308;-59
2024/04/25 08:27:44;;;;;;;6.20;5.65;;;;;;;;;;5383729;26;20010;-59
2024/04/25 08:30:09;;;;;;;6.45;5.85;;;;;;;;;;5383695;26;20012;-59
2024/04/25 08:32:35;;;;;;;6.85;5.85;;;;;;;;;;5383740;26;20320;-59
2024/04/25 08:35:01;;;;;;;5.95;5.38;;;;;;;;;;5352175;26;20031;-59
2024/04/25 08:37:27;;;;;;;4.78;4.32;;;;;;;;;;5383115;26;20450;-59
2024/04/25 08:39:53;;;;;;;7.43;6.40;;;;;;;;;;5383127;26;20008;-59
2024/04/25 08:42:18;;;;;;;6.10;5.53;;;;;;;;;;5383238;26;20007;-59
2024/04/25 08:44:44;;;;;;;7.05;5.80;;;;;;;;;;5383168;26;20011;-59
2024/04/25 08:47:11;;;;;;;6.93;6.22;;;;;;;;;;5383202;26;19992;-59
2024/04/25 08:49:36;;;;;;;5.13;4.63;;;;;;;;;;5352409;26;20015;-58
2024/04/25 08:52:04;;;;;;;6.75;5.93;;;;;;;;;;5383146;26;20331;-59
2024/04/25 08:54:30;;;;;;;6.47;5.38;;;;;;;;;;5382856;26;20024;-59
2024/04/25 08:56:56;;;;;;;6.88;5.78;;;;;;;;;;5382712;26;20004;-59
2024/04/25 08:59:21;;;;;;;7.35;6.32;;;;;;;;;;5383012;26;20061;-59
2024/04/25 09:01:48;;;;;;;7.72;6.85;;;;;;;;;;5352060;26;20012;-59
2024/04/25 09:04:16;;;;;;;8.45;6.40;;;;;;;;;;5382970;26;19996;-59
2024/04/25 09:06:42;;;;;;;8.18;7.38;;;;;;;;;;5351640;26;20081;-59
2024/04/25 09:09:10;;;;;;;7.15;5.95;;;;;;;;;;5382712;26;20004;-59
2024/04/25 09:11:37;;;;;;;6.45;5.80;;;;;;;;;;5383291;26;20308;-58
2024/04/25 09:14:02;;;;;;;6.10;5.50;;;;;;;;;;5384651;26;20007;-59
2024/04/25 09:16:28;;;;;;;6.70;5.80;;;;;;;;;;5386099;26;19992;-59
2024/04/25 09:18:54;;;;;;;6.72;6.13;;;;;;;;;;5386101;26;19992;-59
2024/04/25 09:21:19;;;;;;;5.55;5.05;;;;;;;;;;5386273;26;20008;-59
2024/04/25 09:23:44;;;;;;;8.55;6.03;;;;;;;;;;5386004;26;20007;-59
2024/04/25 09:26:11;;;;;;;6.75;5.75;;;;;;;;;;5385931;26;20073;-59
2024/04/25 09:28:37;;;;;;;5.60;5.13;;;;;;;;;;5386186;26;20010;-59
2024/04/25 09:31:03;;;;;;;8.02;6.22;;;;;;;;;;5385800;26;19996;-59
2024/04/25 09:33:28;;;;;;;5.80;5.18;;;;;;;;;;5354909;26;20004;-59
2024/04/25 09:35:53;;;;;;;5.93;5.00;;;;;;;;;;5385740;26;20072;-59
2024/04/25 09:38:19;;;;;;;5.22;4.70;;;;;;;;;;5385719;26;20073;-59
2024/04/25 09:40:46;;;;;;;8.10;5.38;;;;;;;;;;5386277;26;20453;-59
2024/04/25 09:43:12;;;;;;;5.88;4.40;;;;;;;;;;5386036;26;20001;-59
2024/04/25 09:45:39;;;;;;;4.65;4.25;;;;;;;;;;5354924;26;20007;-59
2024/04/25 09:48:10;;;;;;;7.00;4.97;;;;;;;;;;5385918;26;19997;-59
2024/04/25 09:50:38;;;;;;;3.72;3.47;;;;;;;;;;5385534;26;20069;-58
2024/04/25 09:53:08;;;;;;;7.35;4.25;;;;;;;;;;5385997;26;19996;-59
2024/04/25 09:55:39;;;;;;;5.85;4.15;;;;;;;;;;5385807;26;20007;-59
2024/04/25 09:58:06;;;;;;;2.53;2.33;;;;;;;;;;5378898;26;20011;-59
2024/04/25 10:00:33;;;;;;;4.70;3.40;;;;;;;;;;5385812;26;19996;-59
2024/04/25 10:02:59;;;;;;;3.55;3.25;;;;;;;;;;5385771;26;20000;-59
2024/04/25 10:05:26;;;;;;;4.50;3.28;;;;;;;;;;5385622;26;20335;-58
2024/04/25 10:07:52;;;;;;;0.77;0.77;;;;;;;;;;5385715;26;20011;-59
2024/04/25 10:10:18;;;;;;;1.67;1.58;;;;;;;;;;5384986;26;20008;-59
2024/04/25 10:12:52;;;;;;;3.50;3.20;;;;;;;;;;5385055;26;20348;-59
2024/04/25 10:15:25;;;;;;;2.67;2.47;;;;;;;;;;5384873;26;20077;-59
2024/04/25 10:17:51;;;;;;;4.13;3.70;;;;;;;;;;5384928;26;20015;-59
2024/04/25 10:20:20;;;;;;;4.82;3.13;;;;;;;;;;5385244;26;20315;-59
2024/04/25 10:22:55;;;;;;;4.65;4.22;;;;;;;;;;5385383;26;20016;-59
2024/04/25 10:25:21;;;;;;;4.03;3.75;;;;;;;;;;5384434;26;20007;-59
2024/04/25 10:28:00;;;;;;;4.20;3.03;;;;;;;;;;5385192;26;20001;-59
2024/04/25 10:30:26;;;;;;;2.92;2.72;;;;;;;;;;5385019;26;20004;-59
2024/04/25 10:32:57;;;;;;;3.20;2.63;;;;;;;;;;5385327;26;20057;-58
2024/04/25 10:35:23;;;;;;;2.38;2.17;;;;;;;;;;5384690;26;19996;-58
2024/04/25 10:37:50;;;;;;;3.67;3.13;;;;;;;;;;5384774;26;20007;-59
2024/04/25 10:40:15;;;;;;;2.85;2.65;;;;;;;;;;5384949;26;19997;-65
2024/04/25 10:42:41;;;;;;;2.70;2.25;;;;;;;;;;5384756;26;20010;-64
2024/04/25 10:45:07;;;;;;;3.08;2.88;;;;;;;;;;5384912;26;20085;-64
2024/04/25 10:47:33;;;;;;;3.30;3.10;;;;;;;;;;5354099;26;19996;-64
2024/04/25 10:49:59;;;;;;;3.90;3.60;;;;;;;;;;5384874;26;20010;-64
2024/04/25 10:52:25;;;;;;;3.00;2.78;;;;;;;;;;5384845;26;20000;-64
2024/04/25 10:54:51;;;;;;;2.20;2.10;;;;;;;;;;5384645;26;20000;-64
2024/04/25 10:57:16;;;;;;;1.80;1.70;;;;;;;;;;5384725;26;20013;-64
2024/04/25 10:59:42;;;;;;;2.08;1.98;;;;;;;;;;5384658;26;19996;-65
2024/04/25 11:02:09;;;;;;;1.98;1.88;;;;;;;;;;5384709;26;20008;-64
2024/04/25 11:04:35;;;;;;;2.30;2.08;;;;;;;;;;5353908;26;20008;-64
2024/04/25 11:07:01;;;;;;;2.83;2.55;;;;;;;;;;5384551;26;20027;-64
2024/04/25 11:09:26;;;;;;;2.35;2.15;;;;;;;;;;5384619;26;20008;-64
2024/04/25 11:11:52;;;;;;;3.22;3.03;;;;;;;;;;5384574;26;20500;-64
2024/04/25 11:14:17;;;;;;;3.00;2.80;;;;;;;;;;5384412;26;20004;-64
2024/04/25 11:16:43;;;;;;;3.05;2.85;;;;;;;;;;5384386;26;20007;-64
2024/04/25 11:19:09;;;;;;;2.88;2.67;;;;;;;;;;5384474;26;20001;-64
2024/04/25 11:21:34;;;;;;;2.65;2.45;;;;;;;;;;5384317;26;20069;-64
2024/04/25 11:23:59;;;;;;;2.45;2.25;;;;;;;;;;5384407;26;19993;-64
2024/04/25 11:26:25;;;;;;;1.58;1.48;;;;;;;;;;5384288;26;20011;-65
2024/04/25 11:28:53;;;;;;;2.15;1.88;;;;;;;;;;5383835;26;20011;-65
2024/04/25 11:31:18;;;;;;;2.40;2.20;;;;;;;;;;5384231;26;20102;-65
2024/04/25 11:33:44;;;;;;;2.45;2.25;;;;;;;;;;5384203;26;20008;-65
2024/04/25 11:36:19;;;;;;;2.55;2.13;;;;;;;;;;5383073;26;20069;-65
2024/04/25 11:38:45;;;;;;;2.63;2.42;;;;;;;;;;5383907;26;20000;-65
2024/04/25 11:41:10;;;;;;;2.30;2.20;;;;;;;;;;5384374;26;20065;-65
2024/04/25 11:43:37;;;;;;;2.75;2.55;;;;;;;;;;5384153;26;20007;-65
2024/04/25 11:46:03;;;;;;;2.42;2.15;;;;;;;;;;5384101;26;19997;-65
2024/04/25 11:48:29;;;;;;;2.45;2.25;;;;;;;;;;5352987;26;20007;-65
2024/04/25 11:50:54;;;;;;;4.68;3.85;;;;;;;;;;5384029;26;20335;-64
2024/04/25 11:53:20;;;;;;;2.15;2.05;;;;;;;;;;5383878;26;20000;-65
2024/04/25 11:55:45;;;;;;;2.38;2.25;;;;;;;;;;5383935;26;20312;-64
2024/04/25 11:58:11;;;;;;;2.67;2.55;;;;;;;;;;5383921;26;20072;-64
2024/04/25 12:00:39;;;;;;;2.83;2.63;;;;;;;;;;5383770;26;20350;-65
2024/04/25 12:03:04;;;;;;;2.92;2.72;;;;;;;;;;5383806;26;20000;-65
2024/04/25 12:05:31;;;;;;;2.70;2.50;;;;;;;;;;5383686;26;20074;-64
2024/04/25 12:08:02;;;;;;;1.40;1.33;;;;;;;;;;5383763;26;20434;-64
2024/04/25 12:10:30;;;;;;;2.40;2.03;;;;;;;;;;5383688;26;20008;-64
2024/04/25 12:13:01;;;;;;;2.42;2.22;;;;;;;;;;5383441;26;20044;-64
2024/04/25 12:15:26;;;;;;;2.88;2.60;;;;;;;;;;5383561;26;20513;-65
2024/04/25 12:17:52;;;;;;;2.42;2.22;;;;;;;;;;5383613;26;20007;-65
2024/04/25 12:20:17;;;;;;;3.20;2.00;;;;;;;;;;5383582;26;19992;-65
2024/04/25 12:22:44;;;;;;;2.00;1.88;;;;;;;;;;5383541;26;19992;-65
2024/04/25 12:25:09;;;;;;;2.38;2.13;;;;;;;;;;5383461;26;20326;-64
2024/04/25 12:27:35;;;;;;;1.80;1.70;;;;;;;;;;5383339;26;20047;-64
2024/04/25 12:30:00;;;;;;;1.70;1.60;;;;;;;;;;5383387;26;20007;-65
2024/04/25 12:32:25;;;;;;;2.10;1.90;;;;;;;;;;5352611;26;20006;-65
2024/04/25 12:34:51;;;;;;;1.90;1.80;;;;;;;;;;5383316;26;20065;-65
2024/04/25 12:37:16;;;;;;;1.75;1.65;;;;;;;;;;5383110;26;20000;-64
2024/04/25 12:39:41;;;;;;;2.45;2.25;;;;;;;;;;5383366;26;20000;-65
2024/04/25 12:42:08;;;;;;;1.65;1.55;;;;;;;;;;5383326;26;20423;-65
2024/04/25 12:44:34;;;;;;;1.95;1.85;;;;;;;;;;5352357;26;20031;-65
2024/04/25 12:47:07;;;;;;;1.85;1.75;;;;;;;;;;5383041;26;19996;-65
2024/04/25 12:49:40;;;;;;;1.73;1.63;;;;;;;;;;5383163;26;20073;-65
2024/04/25 12:52:06;;;;;;;1.80;1.70;;;;;;;;;;5383136;26;20007;-65
2024/04/25 12:54:32;;;;;;;3.03;1.45;;;;;;;;;;5382546;26;19996;-65
2024/04/25 12:56:58;;;;;;;1.27;1.17;;;;;;;;;;5383054;26;20000;-65
2024/04/25 12:59:23;;;;;;;1.85;1.65;;;;;;;;;;5323424;26;20423;-65
2024/04/25 13:01:49;;;;;;;1.90;1.80;;;;;;;;;;5382928;26;19992;-65
2024/04/25 13:04:15;;;;;;;2.17;1.67;;;;;;;;;;5383231;26;20007;-65
2024/04/25 13:06:41;;;;;;;1.63;1.52;;;;;;;;;;5382879;26;20003;-65
2024/04/25 13:09:06;;;;;;;1.50;1.40;;;;;;;;;;5382879;26;19997;-65
2024/04/25 13:11:32;;;;;;;1.23;1.20;;;;;;;;;;5381330;26;19996;-65
2024/04/25 13:13:58;;;;;;;1.67;1.58;;;;;;;;;;5378905;26;19996;-64
2024/04/25 13:16:26;;;;;;;1.90;1.80;;;;;;;;;;5380812;26;20319;-65
2024/04/25 13:18:51;;;;;;;1.77;1.45;;;;;;;;;;5381816;26;20560;-65
2024/04/25 13:21:17;;;;;;;1.67;1.58;;;;;;;;;;5379180;26;20059;-65
2024/04/25 13:23:42;;;;;;;3.63;1.88;;;;;;;;;;5349848;26;20000;-65
2024/04/25 13:26:13;;;;;;;1.85;1.75;;;;;;;;;;5352008;26;20449;-65
2024/04/25 13:28:38;;;;;;;1.42;1.35;;;;;;;;;;5382471;26;20015;-64
2024/04/25 13:31:04;;;;;;;1.65;1.55;;;;;;;;;;5382278;26;20415;-64
2024/04/25 13:33:29;;;;;;;1.75;1.65;;;;;;;;;;5351467;26;20011;-64
2024/04/25 13:35:54;;;;;;;1.90;1.80;;;;;;;;;;5382378;26;20000;-64
2024/04/25 13:38:21;;;;;;;1.42;1.33;;;;;;;;;;5365154;26;20347;-65
2024/04/25 13:40:47;;;;;;;1.77;1.67;;;;;;;;;;5347349;26;20008;-65
2024/04/25 13:43:15;;;;;;;1.98;1.50;;;;;;;;;;5345854;26;20005;-64
2024/04/25 13:45:40;;;;;;;1.63;1.52;;;;;;;;;;5316894;26;20012;-65
2024/04/25 13:48:06;;;;;;;2.03;1.60;;;;;;;;;;5347206;26;20000;-64
2024/04/25 13:50:31;;;;;;;1.90;1.80;;;;;;;;;;5347182;26;20008;-65
2024/04/25 13:52:57;;;;;;;1.73;1.63;;;;;;;;;;5347155;26;20079;-64
2024/04/25 13:55:23;;;;;;;2.03;1.85;;;;;;;;;;5346967;26;19997;-65
2024/04/25 13:57:48;;;;;;;1.70;1.60;;;;;;;;;;5347103;26;19997;-64
2024/04/25 14:00:14;;;;;;;3.45;2.03;;;;;;;;;;5349160;26;20012;-64
2024/04/25 14:02:39;;;;;;;1.65;1.55;;;;;;;;;;5320047;26;20009;-65
2024/04/25 14:05:05;;;;;;;1.38;1.25;;;;;;;;;;5346967;26;20011;-65
2024/04/25 14:07:30;;;;;;;2.20;2.00;;;;;;;;;;5346379;26;20007;-65
2024/04/25 14:09:56;;;;;;;3.58;3.28;;;;;;;;;;5348890;26;20340;-65
2024/04/25 14:12:22;;;;;;;2.97;2.75;;;;;;;;;;5350362;26;20364;-65
2024/04/25 14:14:48;;;;;;;2.20;2.10;;;;;;;;;;5338949;26;20005;-65
2024/04/25 14:17:13;;;;;;;4.57;3.85;;;;;;;;;;5290169;26;20015;-65
2024/04/25 14:19:38;;;;;;;2.53;2.33;;;;;;;;;;5349570;26;19993;-65
2024/04/25 14:22:04;;;;;;;3.45;2.78;;;;;;;;;;5349213;26;20007;-59
2024/04/25 14:24:33;;;;;;;2.97;2.78;;;;;;;;;;5349243;26;20004;-58
2024/04/25 14:29:43;;;;;;;3.80;3.50;;;;;;;;;;5349165;26;20002;-59
2024/04/25 14:32:08;;;;;;;5.35;3.88;;;;;;;;;;5318550;26;20015;-59